unifiedlayer.com alexa rank chart, unifiedlayer.com alexa rank daily changes

unifiedlayer.com alexa rank chart, unifiedlayer.com alexa rank daily changes

unifiedlayer.com
Actual rank:
542 485

RANK HISTORY

Date Rank Diff
2017/09/25 542 485 -5 654
2017/09/24 548 139 -5 604
2017/09/23 553 743 +27 763
2017/09/22 525 980 -3 712
2017/09/20 529 692 -5 805
2017/09/19 535 497 +12 351
2017/09/18 523 146 +3 648
2017/09/17 519 498 -2 136
2017/09/16 521 634 -8 278
2017/09/15 529 912 +2 352
2017/09/14 527 560 -2 132
2017/09/13 529 692 +21 951
2017/09/12 507 741 -105 206
2017/09/11 612 947 +13 661
2017/09/10 599 286 +36 688
2017/09/09 562 598 -15 977
2017/09/08 578 575 +14 139
2017/09/07 564 436 +14 187
2017/09/06 550 249 -415
2017/09/05 550 664 -2 018
2017/09/04 552 682 +2 781
2017/09/03 549 901 +17 120
2017/09/02 532 781 -17 329
2017/09/01 550 110 +2 704
2017/08/31 547 406 -10 583
2017/08/30 557 989 -9 155
2017/08/29 567 144 -4 403
2017/08/28 571 547 +346
2017/08/27 571 201 -4 390
2017/08/26 575 591 +21 374
2017/08/25 554 217 +20 405
2017/08/24 533 812 -8 767
2017/08/23 542 579 -14 164
2017/08/22 556 743 -32 615
2017/08/21 589 358 +6 194
2017/08/20 583 164 -8 959
2017/08/19 592 123 -10 775
2017/08/18 602 898 +570
2017/08/17 602 328 -4 780
2017/08/16 607 108 +40 905
2017/08/15 566 203 +14 424
2017/08/14 551 779 +17 048
2017/08/13 534 731 -20 400
2017/08/12 555 131 +4 049
2017/08/11 551 082 +5 959
2017/08/10 545 123 -43 719
2017/08/09 588 842 -10 372
2017/08/08 599 214 -1 563
2017/08/07 600 777 -35 321
2017/08/06 636 098 -9 124
2017/08/05 645 222 -562
2017/08/04 645 784 -5 336
2017/08/03 651 120 +711
2017/08/02 650 409 -6 868
2017/08/01 657 277 +13 879
2017/07/31 643 398 +2 114
2017/07/30 641 284 -7 918
2017/07/29 649 202 +22 495
2017/07/28 626 707 +3 667
2017/07/27 623 040

WIDGET FOR YOUR SITE

DOMAINS WITH THE NEAREST RANK

Domain Rank
powerfulupgrading.download 542 480
soloartesmarciales.com 542 481
xsocial.pt 542 482
volta-electricite.info 542 483
kinetica.com 542 484
unifiedlayer.com 542 485
multimirrorupload.com 542 486
wanderport.net 542 487
whitemountaineering.com 542 488
docenotas.com 542 489
printerservice.com.br 542 490

DOMAINS WITH THE NEAREST RANK BY TLD .com

Domain Rank
longtrim.com 542 476
nairastake.com 542 478
seotools.com 542 479
soloartesmarciales.com 542 481
kinetica.com 542 484
unifiedlayer.com 542 485
multimirrorupload.com 542 486
whitemountaineering.com 542 488
docenotas.com 542 489
misohinutricion.com 542 491
okapiproject.com 542 492